Lincolnshire Woods, Illinois
Current Conditions -  °F | °C
As of 8:52 PM on Thursday 27 Nov 2014 (Local Time) from KPWK Reporting Station
Clear Clear  
Wind Chill: 15°   Ceiling: Unl
Heat Index: 15°   Visibility: 10mi
Dew Point:   Wind: 0mph
Humidity: 77%   Direction: NA
Pressure: 30.42"   Gusts: NA
Location:  42.2369°N, 87.8684°W
Report Text: KPWK 280252Z 00000KT 10SM CLR M09/M13 A3042 RMK AO2 SLP311 T10941128 55002
Loading
Personal Weather Stations






























Interactive Weather Map New forecast layout! Learn more

10-Day Weather Forecast

Advertisements
Track Severe Weather on mobile